sensor_id;sensor_type;location;lat;lon;timestamp;pressure;altitude;pressure_sealevel;temperature
76901;BMP280;65859;43.020;25.096;2023-04-15T00:01:48;98496.88;;;11.97
76901;BMP280;65859;43.020;25.096;2023-04-15T00:04:14;98495.06;;;11.81
76901;BMP280;65859;43.020;25.096;2023-04-15T00:06:40;98487.31;;;11.92
76901;BMP280;65859;43.020;25.096;2023-04-15T00:09:07;98475.91;;;11.91
76901;BMP280;65859;43.020;25.096;2023-04-15T00:11:33;98462.13;;;11.86
76901;BMP280;65859;43.020;25.096;2023-04-15T00:14:00;98444.72;;;11.88
76901;BMP280;65859;43.020;25.096;2023-04-15T00:16:26;98437.72;;;12.00
76901;BMP280;65859;43.020;25.096;2023-04-15T00:18:53;98442.09;;;12.11
76901;BMP280;65859;43.020;25.096;2023-04-15T00:21:19;98454.44;;;11.81
76901;BMP280;65859;43.020;25.096;2023-04-15T00:23:46;98463.84;;;11.59
76901;BMP280;65859;43.020;25.096;2023-04-15T00:26:19;98473.00;;;11.46
76901;BMP280;65859;43.020;25.096;2023-04-15T00:28:46;98473.13;;;11.33
76901;BMP280;65859;43.020;25.096;2023-04-15T00:31:13;98481.53;;;11.20
76901;BMP280;65859;43.020;25.096;2023-04-15T00:33:39;98490.94;;;11.01
76901;BMP280;65859;43.020;25.096;2023-04-15T00:36:06;98484.25;;;11.23
76901;BMP280;65859;43.020;25.096;2023-04-15T00:38:33;98479.63;;;11.36
76901;BMP280;65859;43.020;25.096;2023-04-15T00:40:59;98482.50;;;11.12
76901;BMP280;65859;43.020;25.096;2023-04-15T00:43:26;98478.94;;;11.55
76901;BMP280;65859;43.020;25.096;2023-04-15T00:45:53;98475.19;;;11.24
76901;BMP280;65859;43.020;25.096;2023-04-15T00:48:22;98477.56;;;11.29
76901;BMP280;65859;43.020;25.096;2023-04-15T00:50:49;98491.25;;;11.63
76901;BMP280;65859;43.020;25.096;2023-04-15T00:53:15;98490.56;;;11.66
76901;BMP280;65859;43.020;25.096;2023-04-15T00:55:42;98491.50;;;11.74
76901;BMP280;65859;43.020;25.096;2023-04-15T00:58:10;98494.47;;;11.72
76901;BMP280;65859;43.020;25.096;2023-04-15T01:00:37;98493.25;;;11.85
76901;BMP280;65859;43.020;25.096;2023-04-15T01:03:03;98492.56;;;11.88
76901;BMP280;65859;43.020;25.096;2023-04-15T01:05:30;98479.13;;;11.81
76901;BMP280;65859;43.020;25.096;2023-04-15T01:07:56;98484.59;;;11.88
76901;BMP280;65859;43.020;25.096;2023-04-15T01:10:23;98476.31;;;11.94
76901;BMP280;65859;43.020;25.096;2023-04-15T01:12:49;98478.69;;;11.79
76901;BMP280;65859;43.020;25.096;2023-04-15T01:15:16;98470.75;;;11.63
76901;BMP280;65859;43.020;25.096;2023-04-15T01:17:42;98474.47;;;11.78
76901;BMP280;65859;43.020;25.096;2023-04-15T01:20:09;98480.38;;;11.52
76901;BMP280;65859;43.020;25.096;2023-04-15T01:22:37;98495.66;;;11.24
76901;BMP280;65859;43.020;25.096;2023-04-15T01:25:15;98493.59;;;11.17
76901;BMP280;65859;43.020;25.096;2023-04-15T01:27:42;98493.72;;;11.37
76901;BMP280;65859;43.020;25.096;2023-04-15T01:30:11;98492.34;;;11.11
76901;BMP280;65859;43.020;25.096;2023-04-15T01:32:37;98496.50;;;10.80
76901;BMP280;65859;43.020;25.096;2023-04-15T01:35:04;98493.50;;;10.82
76901;BMP280;65859;43.020;25.096;2023-04-15T01:37:30;98488.03;;;11.22
76901;BMP280;65859;43.020;25.096;2023-04-15T01:39:57;98480.59;;;11.12
76901;BMP280;65859;43.020;25.096;2023-04-15T01:42:23;98489.91;;;11.22
76901;BMP280;65859;43.020;25.096;2023-04-15T01:44:50;98496.75;;;11.39
76901;BMP280;65859;43.020;25.096;2023-04-15T01:47:16;98490.94;;;11.49
76901;BMP280;65859;43.020;25.096;2023-04-15T01:49:42;98486.22;;;11.42
76901;BMP280;65859;43.020;25.096;2023-04-15T01:52:08;98475.69;;;11.30
76901;BMP280;65859;43.020;25.096;2023-04-15T01:54:35;98485.91;;;10.96
76901;BMP280;65859;43.020;25.096;2023-04-15T01:57:01;98491.25;;;10.68
76901;BMP280;65859;43.020;25.096;2023-04-15T01:59:29;98493.38;;;10.63
76901;BMP280;65859;43.020;25.096;2023-04-15T02:01:58;98497.34;;;10.85
76901;BMP280;65859;43.020;25.096;2023-04-15T02:04:24;98501.28;;;10.91
76901;BMP280;65859;43.020;25.096;2023-04-15T02:06:51;98505.91;;;10.78
76901;BMP280;65859;43.020;25.096;2023-04-15T02:09:18;98499.84;;;11.09
76901;BMP280;65859;43.020;25.096;2023-04-15T02:11:44;98500.78;;;11.17
76901;BMP280;65859;43.020;25.096;2023-04-15T02:14:10;98500.19;;;11.23
76901;BMP280;65859;43.020;25.096;2023-04-15T02:16:37;98490.66;;;11.06
76901;BMP280;65859;43.020;25.096;2023-04-15T02:19:04;98486.84;;;11.20
76901;BMP280;65859;43.020;25.096;2023-04-15T02:21:30;98491.97;;;11.28
76901;BMP280;65859;43.020;25.096;2023-04-15T02:23:56;98487.59;;;11.36
76901;BMP280;65859;43.020;25.096;2023-04-15T02:26:23;98495.75;;;10.96
76901;BMP280;65859;43.020;25.096;2023-04-15T02:28:50;98497.31;;;10.69
76901;BMP280;65859;43.020;25.096;2023-04-15T02:31:17;98497.78;;;10.59
76901;BMP280;65859;43.020;25.096;2023-04-15T02:33:47;98500.06;;;10.72
76901;BMP280;65859;43.020;25.096;2023-04-15T02:36:13;98508.50;;;10.62
76901;BMP280;65859;43.020;25.096;2023-04-15T02:38:39;98506.69;;;10.78
76901;BMP280;65859;43.020;25.096;2023-04-15T02:41:09;98510.44;;;10.77
76901;BMP280;65859;43.020;25.096;2023-04-15T02:43:35;98510.19;;;10.82
76901;BMP280;65859;43.020;25.096;2023-04-15T02:46:01;98512.81;;;10.67
76901;BMP280;65859;43.020;25.096;2023-04-15T02:48:28;98542.81;;;10.99
76901;BMP280;65859;43.020;25.096;2023-04-15T02:51:11;98577.03;;;10.72
76901;BMP280;65859;43.020;25.096;2023-04-15T02:53:37;98564.50;;;10.33
76901;BMP280;65859;43.020;25.096;2023-04-15T02:56:04;98574.41;;;10.20
76901;BMP280;65859;43.020;25.096;2023-04-15T02:58:31;98555.09;;;10.75
76901;BMP280;65859;43.020;25.096;2023-04-15T03:00:57;98552.88;;;10.49
76901;BMP280;65859;43.020;25.096;2023-04-15T03:03:23;98553.31;;;10.11
76901;BMP280;65859;43.020;25.096;2023-04-15T03:05:50;98555.06;;;10.19
76901;BMP280;65859;43.020;25.096;2023-04-15T03:08:16;98560.69;;;10.30
76901;BMP280;65859;43.020;25.096;2023-04-15T03:10:42;98563.22;;;10.26
76901;BMP280;65859;43.020;25.096;2023-04-15T03:13:08;98561.88;;;10.45
76901;BMP280;65859;43.020;25.096;2023-04-15T03:15:35;98554.88;;;9.88
76901;BMP280;65859;43.020;25.096;2023-04-15T03:18:01;98549.34;;;9.93
76901;BMP280;65859;43.020;25.096;2023-04-15T03:20:29;98539.44;;;9.90
76901;BMP280;65859;43.020;25.096;2023-04-15T03:22:55;98545.81;;;9.89
76901;BMP280;65859;43.020;25.096;2023-04-15T03:25:22;98544.28;;;9.88
76901;BMP280;65859;43.020;25.096;2023-04-15T03:27:48;98546.81;;;9.96
76901;BMP280;65859;43.020;25.096;2023-04-15T03:30:14;98542.53;;;10.04
76901;BMP280;65859;43.020;25.096;2023-04-15T03:32:41;98529.72;;;10.34
76901;BMP280;65859;43.020;25.096;2023-04-15T03:35:08;98526.34;;;10.49
76901;BMP280;65859;43.020;25.096;2023-04-15T03:37:34;98548.00;;;10.11
76901;BMP280;65859;43.020;25.096;2023-04-15T03:40:01;98562.16;;;10.03
76901;BMP280;65859;43.020;25.096;2023-04-15T03:42:27;98559.50;;;9.66
76901;BMP280;65859;43.020;25.096;2023-04-15T03:44:53;98556.59;;;9.35
76901;BMP280;65859;43.020;25.096;2023-04-15T03:47:20;98565.66;;;9.34
76901;BMP280;65859;43.020;25.096;2023-04-15T03:49:46;98573.53;;;9.42
76901;BMP280;65859;43.020;25.096;2023-04-15T03:52:14;98581.34;;;9.39
76901;BMP280;65859;43.020;25.096;2023-04-15T03:54:40;98592.72;;;9.52
76901;BMP280;65859;43.020;25.096;2023-04-15T03:57:07;98590.31;;;9.26
76901;BMP280;65859;43.020;25.096;2023-04-15T03:59:33;98582.47;;;9.50
76901;BMP280;65859;43.020;25.096;2023-04-15T04:01:59;98586.69;;;9.76
76901;BMP280;65859;43.020;25.096;2023-04-15T04:04:26;98586.44;;;9.56
76901;BMP280;65859;43.020;25.096;2023-04-15T04:06:52;98582.91;;;9.64
76901;BMP280;65859;43.020;25.096;2023-04-15T04:09:18;98583.91;;;9.72
76901;BMP280;65859;43.020;25.096;2023-04-15T04:11:45;98591.53;;;9.98
76901;BMP280;65859;43.020;25.096;2023-04-15T04:14:12;98601.69;;;9.96
76901;BMP280;65859;43.020;25.096;2023-04-15T04:16:38;98593.75;;;9.84
76901;BMP280;65859;43.020;25.096;2023-04-15T04:19:04;98592.50;;;9.81
76901;BMP280;65859;43.020;25.096;2023-04-15T04:21:30;98602.13;;;10.22
76901;BMP280;65859;43.020;25.096;2023-04-15T04:24:02;98605.53;;;10.35
76901;BMP280;65859;43.020;25.096;2023-04-15T04:26:29;98621.13;;;10.12
76901;BMP280;65859;43.020;25.096;2023-04-15T04:28:55;98621.88;;;10.25
76901;BMP280;65859;43.020;25.096;2023-04-15T04:31:21;98628.53;;;9.94
76901;BMP280;65859;43.020;25.096;2023-04-15T04:33:48;98634.34;;;10.00
76901;BMP280;65859;43.020;25.096;2023-04-15T04:36:14;98648.41;;;9.88
76901;BMP280;65859;43.020;25.096;2023-04-15T04:38:40;98658.66;;;9.90
76901;BMP280;65859;43.020;25.096;2023-04-15T04:41:06;98658.88;;;10.09
76901;BMP280;65859;43.020;25.096;2023-04-15T04:43:33;98667.19;;;10.20
76901;BMP280;65859;43.020;25.096;2023-04-15T04:45:59;98679.63;;;10.07
76901;BMP280;65859;43.020;25.096;2023-04-15T04:48:25;98680.28;;;9.92
76901;BMP280;65859;43.020;25.096;2023-04-15T04:50:52;98679.22;;;10.05
76901;BMP280;65859;43.020;25.096;2023-04-15T04:53:18;98680.09;;;10.34
76901;BMP280;65859;43.020;25.096;2023-04-15T04:55:46;98682.97;;;10.41
76901;BMP280;65859;43.020;25.096;2023-04-15T04:58:12;98680.44;;;10.57
76901;BMP280;65859;43.020;25.096;2023-04-15T05:00:40;98673.47;;;10.52
76901;BMP280;65859;43.020;25.096;2023-04-15T05:03:07;98684.72;;;10.37
76901;BMP280;65859;43.020;25.096;2023-04-15T05:05:33;98688.47;;;10.72
76901;BMP280;65859;43.020;25.096;2023-04-15T05:08:02;98677.84;;;10.72
76901;BMP280;65859;43.020;25.096;2023-04-15T05:10:28;98683.03;;;10.69
76901;BMP280;65859;43.020;25.096;2023-04-15T05:12:54;98675.63;;;10.74
76901;BMP280;65859;43.020;25.096;2023-04-15T05:15:21;98675.53;;;10.71
76901;BMP280;65859;43.020;25.096;2023-04-15T05:17:47;98676.53;;;10.54
76901;BMP280;65859;43.020;25.096;2023-04-15T05:20:13;98682.38;;;10.72
76901;BMP280;65859;43.020;25.096;2023-04-15T05:22:40;98686.47;;;10.57
76901;BMP280;65859;43.020;25.096;2023-04-15T05:25:07;98687.56;;;10.68
76901;BMP280;65859;43.020;25.096;2023-04-15T05:27:36;98691.66;;;10.66
76901;BMP280;65859;43.020;25.096;2023-04-15T05:30:03;98686.94;;;10.47
76901;BMP280;65859;43.020;25.096;2023-04-15T05:32:29;98685.19;;;10.39
76901;BMP280;65859;43.020;25.096;2023-04-15T05:34:56;98684.84;;;10.28
76901;BMP280;65859;43.020;25.096;2023-04-15T05:37:23;98691.72;;;11.22
76901;BMP280;65859;43.020;25.096;2023-04-15T05:39:49;98699.03;;;12.16
76901;BMP280;65859;43.020;25.096;2023-04-15T05:42:15;98688.81;;;11.55
76901;BMP280;65859;43.020;25.096;2023-04-15T05:44:42;98690.97;;;11.65
76901;BMP280;65859;43.020;25.096;2023-04-15T05:47:08;98699.78;;;12.16
76901;BMP280;65859;43.020;25.096;2023-04-15T05:49:36;98698.59;;;12.65
76901;BMP280;65859;43.020;25.096;2023-04-15T05:52:02;98701.94;;;12.81
76901;BMP280;65859;43.020;25.096;2023-04-15T05:54:28;98704.34;;;12.86
76901;BMP280;65859;43.020;25.096;2023-04-15T05:56:55;98705.16;;;13.29
76901;BMP280;65859;43.020;25.096;2023-04-15T05:59:24;98702.81;;;13.70
76901;BMP280;65859;43.020;25.096;2023-04-15T06:01:50;98707.34;;;13.92
76901;BMP280;65859;43.020;25.096;2023-04-15T06:04:18;98706.41;;;13.81
76901;BMP280;65859;43.020;25.096;2023-04-15T06:06:47;98711.69;;;13.54
76901;BMP280;65859;43.020;25.096;2023-04-15T06:09:13;98723.03;;;13.28
76901;BMP280;65859;43.020;25.096;2023-04-15T06:11:40;98723.63;;;14.36
76901;BMP280;65859;43.020;25.096;2023-04-15T06:14:06;98723.53;;;14.86
76901;BMP280;65859;43.020;25.096;2023-04-15T06:16:33;98737.75;;;14.63
76901;BMP280;65859;43.020;25.096;2023-04-15T06:19:02;98742.75;;;14.98
76901;BMP280;65859;43.020;25.096;2023-04-15T06:21:28;98742.06;;;15.05
76901;BMP280;65859;43.020;25.096;2023-04-15T06:23:55;98740.06;;;15.76
76901;BMP280;65859;43.020;25.096;2023-04-15T06:26:21;98740.91;;;16.46
76901;BMP280;65859;43.020;25.096;2023-04-15T06:28:48;98745.84;;;15.78
76901;BMP280;65859;43.020;25.096;2023-04-15T06:31:15;98742.31;;;16.22
76901;BMP280;65859;43.020;25.096;2023-04-15T06:33:42;98749.94;;;16.16
76901;BMP280;65859;43.020;25.096;2023-04-15T06:36:08;98746.00;;;16.03
76901;BMP280;65859;43.020;25.096;2023-04-15T06:38:34;98747.69;;;15.71
76901;BMP280;65859;43.020;25.096;2023-04-15T06:41:02;98749.09;;;16.05
76901;BMP280;65859;43.020;25.096;2023-04-15T06:43:28;98754.84;;;16.76
76901;BMP280;65859;43.020;25.096;2023-04-15T06:45:55;98745.50;;;16.45
76901;BMP280;65859;43.020;25.096;2023-04-15T06:48:21;98748.09;;;17.25
76901;BMP280;65859;43.020;25.096;2023-04-15T06:50:49;98760.38;;;17.44
76901;BMP280;65859;43.020;25.096;2023-04-15T06:53:15;98753.06;;;17.20
76901;BMP280;65859;43.020;25.096;2023-04-15T06:55:41;98749.59;;;17.16
76901;BMP280;65859;43.020;25.096;2023-04-15T06:58:08;98753.88;;;17.31
76901;BMP280;65859;43.020;25.096;2023-04-15T07:00:34;98749.25;;;17.42
76901;BMP280;65859;43.020;25.096;2023-04-15T07:03:02;98746.56;;;17.24
76901;BMP280;65859;43.020;25.096;2023-04-15T07:05:29;98758.66;;;16.83
76901;BMP280;65859;43.020;25.096;2023-04-15T07:07:57;98756.03;;;16.13
76901;BMP280;65859;43.020;25.096;2023-04-15T07:10:23;98758.09;;;17.64
76901;BMP280;65859;43.020;25.096;2023-04-15T07:12:50;98759.97;;;17.92
76901;BMP280;65859;43.020;25.096;2023-04-15T07:15:16;98768.03;;;17.63
76901;BMP280;65859;43.020;25.096;2023-04-15T07:17:43;98761.81;;;16.95
76901;BMP280;65859;43.020;25.096;2023-04-15T07:20:09;98758.06;;;17.35
76901;BMP280;65859;43.020;25.096;2023-04-15T07:22:36;98766.31;;;18.69
76901;BMP280;65859;43.020;25.096;2023-04-15T07:25:02;98763.09;;;18.96
76901;BMP280;65859;43.020;25.096;2023-04-15T07:27:28;98769.38;;;18.75
76901;BMP280;65859;43.020;25.096;2023-04-15T07:29:55;98767.38;;;19.45
76901;BMP280;65859;43.020;25.096;2023-04-15T07:32:21;98770.16;;;18.68
76901;BMP280;65859;43.020;25.096;2023-04-15T07:34:51;98769.56;;;19.12
76901;BMP280;65859;43.020;25.096;2023-04-15T07:37:17;98770.91;;;19.38
76901;BMP280;65859;43.020;25.096;2023-04-15T07:39:44;98768.44;;;19.58
76901;BMP280;65859;43.020;25.096;2023-04-15T07:42:10;98760.97;;;18.55
76901;BMP280;65859;43.020;25.096;2023-04-15T07:44:36;98768.97;;;19.39
76901;BMP280;65859;43.020;25.096;2023-04-15T07:47:03;98765.28;;;19.70
76901;BMP280;65859;43.020;25.096;2023-04-15T07:49:29;98765.25;;;20.11
76901;BMP280;65859;43.020;25.096;2023-04-15T07:51:55;98771.94;;;20.34
76901;BMP280;65859;43.020;25.096;2023-04-15T07:54:22;98771.97;;;20.64
76901;BMP280;65859;43.020;25.096;2023-04-15T07:56:49;98776.38;;;20.78
76901;BMP280;65859;43.020;25.096;2023-04-15T07:59:16;98775.06;;;21.17
76901;BMP280;65859;43.020;25.096;2023-04-15T08:01:43;98775.06;;;20.90
76901;BMP280;65859;43.020;25.096;2023-04-15T08:04:10;98772.31;;;20.93
76901;BMP280;65859;43.020;25.096;2023-04-15T08:06:38;98772.31;;;21.20
76901;BMP280;65859;43.020;25.096;2023-04-15T08:09:05;98781.78;;;21.55
76901;BMP280;65859;43.020;25.096;2023-04-15T08:11:33;98781.31;;;21.37
76901;BMP280;65859;43.020;25.096;2023-04-15T08:13:59;98778.75;;;21.96
76901;BMP280;65859;43.020;25.096;2023-04-15T08:16:26;98773.88;;;22.47
76901;BMP280;65859;43.020;25.096;2023-04-15T08:18:55;98779.09;;;22.74
76901;BMP280;65859;43.020;25.096;2023-04-15T08:21:22;98784.13;;;23.41
76901;BMP280;65859;43.020;25.096;2023-04-15T08:23:50;98778.75;;;23.70
76901;BMP280;65859;43.020;25.096;2023-04-15T08:26:17;98789.38;;;25.89
76901;BMP280;65859;43.020;25.096;2023-04-15T08:28:44;98798.75;;;25.66
76901;BMP280;65859;43.020;25.096;2023-04-15T08:31:15;98798.03;;;27.26
76901;BMP280;65859;43.020;25.096;2023-04-15T08:33:42;98800.28;;;25.54
76901;BMP280;65859;43.020;25.096;2023-04-15T08:36:09;98805.75;;;27.18
76901;BMP280;65859;43.020;25.096;2023-04-15T08:38:37;98808.13;;;27.99
76901;BMP280;65859;43.020;25.096;2023-04-15T08:41:10;98803.06;;;29.44
76901;BMP280;65859;43.020;25.096;2023-04-15T08:43:45;98806.63;;;27.98
76901;BMP280;65859;43.020;25.096;2023-04-15T08:46:13;98792.91;;;29.74
76901;BMP280;65859;43.020;25.096;2023-04-15T08:48:41;98793.72;;;29.94
76901;BMP280;65859;43.020;25.096;2023-04-15T08:51:08;98785.06;;;29.13
76901;BMP280;65859;43.020;25.096;2023-04-15T08:53:36;98781.94;;;29.29
76901;BMP280;65859;43.020;25.096;2023-04-15T08:56:04;98772.75;;;28.79
76901;BMP280;65859;43.020;25.096;2023-04-15T08:58:32;98771.31;;;30.25
76901;BMP280;65859;43.020;25.096;2023-04-15T09:00:59;98766.03;;;30.22
76901;BMP280;65859;43.020;25.096;2023-04-15T09:03:26;98786.19;;;29.60
76901;BMP280;65859;43.020;25.096;2023-04-15T09:05:54;98781.38;;;28.21
76901;BMP280;65859;43.020;25.096;2023-04-15T09:08:20;98772.34;;;31.09
76901;BMP280;65859;43.020;25.096;2023-04-15T09:10:49;98775.66;;;31.70
76901;BMP280;65859;43.020;25.096;2023-04-15T09:13:17;98771.91;;;32.58
76901;BMP280;65859;43.020;25.096;2023-04-15T09:15:43;98780.88;;;32.53
76901;BMP280;65859;43.020;25.096;2023-04-15T09:18:11;98769.28;;;32.97
76901;BMP280;65859;43.020;25.096;2023-04-15T09:20:41;98774.31;;;33.60
76901;BMP280;65859;43.020;25.096;2023-04-15T09:23:12;98753.59;;;32.50
76901;BMP280;65859;43.020;25.096;2023-04-15T09:25:40;98769.13;;;32.47
76901;BMP280;65859;43.020;25.096;2023-04-15T09:28:09;98766.03;;;31.55
76901;BMP280;65859;43.020;25.096;2023-04-15T09:30:36;98763.16;;;34.74
76901;BMP280;65859;43.020;25.096;2023-04-15T09:33:04;98765.63;;;36.34
76901;BMP280;65859;43.020;25.096;2023-04-15T09:35:33;98744.50;;;33.70
76901;BMP280;65859;43.020;25.096;2023-04-15T09:38:08;98740.38;;;25.80
76901;BMP280;65859;43.020;25.096;2023-04-15T09:40:39;98754.97;;;31.80
76901;BMP280;65859;43.020;25.096;2023-04-15T09:43:09;98750.81;;;31.54
76901;BMP280;65859;43.020;25.096;2023-04-15T09:45:38;98743.19;;;33.99
76901;BMP280;65859;43.020;25.096;2023-04-15T09:50:44;98734.53;;;33.11
76901;BMP280;65859;43.020;25.096;2023-04-15T09:53:14;98733.94;;;34.07
76901;BMP280;65859;43.020;25.096;2023-04-15T09:55:57;98728.25;;;32.18
76901;BMP280;65859;43.020;25.096;2023-04-15T09:58:27;98720.75;;;33.33
76901;BMP280;65859;43.020;25.096;2023-04-15T10:00:55;98719.97;;;32.83
76901;BMP280;65859;43.020;25.096;2023-04-15T10:05:49;98724.34;;;35.32
76901;BMP280;65859;43.020;25.096;2023-04-15T10:08:21;98722.97;;;33.74
76901;BMP280;65859;43.020;25.096;2023-04-15T10:10:49;98722.19;;;36.67
76901;BMP280;65859;43.020;25.096;2023-04-15T10:13:25;98720.91;;;29.67
76901;BMP280;65859;43.020;25.096;2023-04-15T10:16:06;98717.44;;;29.38
76901;BMP280;65859;43.020;25.096;2023-04-15T10:18:41;98707.44;;;31.26
76901;BMP280;65859;43.020;25.096;2023-04-15T10:21:08;98714.44;;;34.87
76901;BMP280;65859;43.020;25.096;2023-04-15T10:23:35;98704.50;;;27.89
76901;BMP280;65859;43.020;25.096;2023-04-15T10:26:03;98697.19;;;24.82
76901;BMP280;65859;43.020;25.096;2023-04-15T10:28:29;98704.88;;;25.52
76901;BMP280;65859;43.020;25.096;2023-04-15T10:30:56;98693.13;;;23.14
76901;BMP280;65859;43.020;25.096;2023-04-15T10:33:24;98703.41;;;22.54
76901;BMP280;65859;43.020;25.096;2023-04-15T10:35:53;98718.00;;;33.45
76901;BMP280;65859;43.020;25.096;2023-04-15T10:38:44;98692.25;;;24.17
76901;BMP280;65859;43.020;25.096;2023-04-15T10:41:21;98699.16;;;23.35
76901;BMP280;65859;43.020;25.096;2023-04-15T10:46:43;98696.84;;;24.80
76901;BMP280;65859;43.020;25.096;2023-04-15T10:49:23;98688.97;;;22.45
76901;BMP280;65859;43.020;25.096;2023-04-15T10:51:57;98706.69;;;23.72
76901;BMP280;65859;43.020;25.096;2023-04-15T10:57:06;98690.81;;;23.13
76901;BMP280;65859;43.020;25.096;2023-04-15T10:59:37;98688.13;;;22.80
76901;BMP280;65859;43.020;25.096;2023-04-15T11:02:05;98690.53;;;23.23
76901;BMP280;65859;43.020;25.096;2023-04-15T11:04:54;98694.09;;;24.20
76901;BMP280;65859;43.020;25.096;2023-04-15T11:12:53;98684.22;;;23.14
76901;BMP280;65859;43.020;25.096;2023-04-15T11:15:34;98686.34;;;23.22
76901;BMP280;65859;43.020;25.096;2023-04-15T11:20:39;98682.13;;;23.92
76901;BMP280;65859;43.020;25.096;2023-04-15T11:23:06;98683.84;;;24.11
76901;BMP280;65859;43.020;25.096;2023-04-15T11:25:34;98683.19;;;23.95
76901;BMP280;65859;43.020;25.096;2023-04-15T11:28:03;98686.19;;;23.42
76901;BMP280;65859;43.020;25.096;2023-04-15T11:30:36;98681.88;;;23.45
76901;BMP280;65859;43.020;25.096;2023-04-15T11:33:04;98676.97;;;22.94
76901;BMP280;65859;43.020;25.096;2023-04-15T11:35:31;98676.78;;;22.85
76901;BMP280;65859;43.020;25.096;2023-04-15T11:37:58;98684.59;;;21.75
76901;BMP280;65859;43.020;25.096;2023-04-15T11:40:28;98684.50;;;22.71
76901;BMP280;65859;43.020;25.096;2023-04-15T11:45:37;98679.25;;;21.52
76901;BMP280;65859;43.020;25.096;2023-04-15T11:48:10;98676.06;;;21.57
76901;BMP280;65859;43.020;25.096;2023-04-15T11:50:38;98668.66;;;22.01
76901;BMP280;65859;43.020;25.096;2023-04-15T11:53:12;98671.88;;;22.80
76901;BMP280;65859;43.020;25.096;2023-04-15T11:55:49;98668.75;;;22.82
76901;BMP280;65859;43.020;25.096;2023-04-15T11:58:23;98664.66;;;22.77
76901;BMP280;65859;43.020;25.096;2023-04-15T12:00:54;98654.19;;;21.91
76901;BMP280;65859;43.020;25.096;2023-04-15T12:03:25;98658.53;;;21.65
76901;BMP280;65859;43.020;25.096;2023-04-15T12:06:05;98660.00;;;21.70
76901;BMP280;65859;43.020;25.096;2023-04-15T12:14:04;98654.28;;;21.44
76901;BMP280;65859;43.020;25.096;2023-04-15T12:16:38;98647.59;;;21.52
76901;BMP280;65859;43.020;25.096;2023-04-15T12:19:08;98643.56;;;21.41
76901;BMP280;65859;43.020;25.096;2023-04-15T12:21:37;98642.53;;;21.54
76901;BMP280;65859;43.020;25.096;2023-04-15T12:24:05;98652.25;;;21.52
76901;BMP280;65859;43.020;25.096;2023-04-15T12:26:44;98649.50;;;21.75
76901;BMP280;65859;43.020;25.096;2023-04-15T12:29:12;98644.75;;;21.99
76901;BMP280;65859;43.020;25.096;2023-04-15T12:31:52;98654.97;;;21.28
76901;BMP280;65859;43.020;25.096;2023-04-15T12:34:32;98645.44;;;21.44
76901;BMP280;65859;43.020;25.096;2023-04-15T12:37:00;98643.47;;;21.67
76901;BMP280;65859;43.020;25.096;2023-04-15T12:39:29;98640.09;;;21.63
76901;BMP280;65859;43.020;25.096;2023-04-15T12:41:56;98643.56;;;21.80
76901;BMP280;65859;43.020;25.096;2023-04-15T12:44:23;98636.22;;;21.41
76901;BMP280;65859;43.020;25.096;2023-04-15T12:46:51;98640.44;;;21.22
76901;BMP280;65859;43.020;25.096;2023-04-15T12:49:19;98634.81;;;21.13
76901;BMP280;65859;43.020;25.096;2023-04-15T12:51:48;98630.91;;;21.38
76901;BMP280;65859;43.020;25.096;2023-04-15T12:54:16;98629.03;;;21.34
76901;BMP280;65859;43.020;25.096;2023-04-15T12:56:43;98630.13;;;21.37
76901;BMP280;65859;43.020;25.096;2023-04-15T12:59:10;98626.84;;;21.06
76901;BMP280;65859;43.020;25.096;2023-04-15T13:01:36;98629.56;;;21.26
76901;BMP280;65859;43.020;25.096;2023-04-15T13:04:03;98619.47;;;21.30
76901;BMP280;65859;43.020;25.096;2023-04-15T13:06:29;98623.06;;;21.00
76901;BMP280;65859;43.020;25.096;2023-04-15T13:09:01;98622.06;;;21.14
76901;BMP280;65859;43.020;25.096;2023-04-15T13:11:29;98621.44;;;21.06
76901;BMP280;65859;43.020;25.096;2023-04-15T13:14:03;98621.91;;;21.01
76901;BMP280;65859;43.020;25.096;2023-04-15T13:16:30;98619.06;;;21.08
76901;BMP280;65859;43.020;25.096;2023-04-15T13:18:59;98611.41;;;21.07
76901;BMP280;65859;43.020;25.096;2023-04-15T13:21:26;98619.56;;;21.46
76901;BMP280;65859;43.020;25.096;2023-04-15T13:23:53;98611.38;;;21.30
76901;BMP280;65859;43.020;25.096;2023-04-15T13:26:20;98611.34;;;21.10
76901;BMP280;65859;43.020;25.096;2023-04-15T13:28:46;98610.41;;;21.40
76901;BMP280;65859;43.020;25.096;2023-04-15T13:31:13;98619.19;;;21.24
76901;BMP280;65859;43.020;25.096;2023-04-15T13:33:39;98622.16;;;21.10
76901;BMP280;65859;43.020;25.096;2023-04-15T13:36:06;98620.75;;;21.02
76901;BMP280;65859;43.020;25.096;2023-04-15T13:38:33;98623.28;;;20.62
76901;BMP280;65859;43.020;25.096;2023-04-15T13:40:59;98623.72;;;20.61
76901;BMP280;65859;43.020;25.096;2023-04-15T13:43:25;98621.28;;;20.66
76901;BMP280;65859;43.020;25.096;2023-04-15T13:45:52;98624.81;;;20.63
76901;BMP280;65859;43.020;25.096;2023-04-15T13:48:18;98628.84;;;20.75
76901;BMP280;65859;43.020;25.096;2023-04-15T13:50:49;98630.19;;;20.90
76901;BMP280;65859;43.020;25.096;2023-04-15T13:53:15;98624.84;;;20.87
76901;BMP280;65859;43.020;25.096;2023-04-15T13:55:42;98625.06;;;20.96
76901;BMP280;65859;43.020;25.096;2023-04-15T13:58:09;98631.06;;;20.84
76901;BMP280;65859;43.020;25.096;2023-04-15T14:00:36;98626.94;;;20.99
76901;BMP280;65859;43.020;25.096;2023-04-15T14:03:02;98634.03;;;20.89
76901;BMP280;65859;43.020;25.096;2023-04-15T14:05:29;98632.50;;;20.38
76901;BMP280;65859;43.020;25.096;2023-04-15T14:07:56;98628.03;;;20.78
76901;BMP280;65859;43.020;25.096;2023-04-15T14:10:22;98628.41;;;20.80
76901;BMP280;65859;43.020;25.096;2023-04-15T14:12:49;98632.34;;;20.76
76901;BMP280;65859;43.020;25.096;2023-04-15T14:15:15;98632.22;;;20.83
76901;BMP280;65859;43.020;25.096;2023-04-15T14:17:42;98646.41;;;20.87
76901;BMP280;65859;43.020;25.096;2023-04-15T14:20:08;98641.03;;;20.60
76901;BMP280;65859;43.020;25.096;2023-04-15T14:22:36;98640.81;;;20.74
76901;BMP280;65859;43.020;25.096;2023-04-15T14:25:03;98641.31;;;20.69
76901;BMP280;65859;43.020;25.096;2023-04-15T14:27:29;98633.38;;;20.58